Time;durP1;ratioP1;P1;durP2;ratioP2;P2;SDS_P1;SDS_P2;PMS_P1;PMS_P2;Temp;Humidity;BMP_temperature;BMP_pressure;BME280_temperature;BME280_humidity;BME280_pressure;Samples;Min_cycle;Max_cycle;Signal;HPM_P1;HPM_P2
2023/05/12 00:00:59;;;;;;;2.70;1.23;;;;;;;8.84;47.30;102611.03;5062959;28;20056;-73
2023/05/12 00:03:26;;;;;;;1.48;1.13;;;;;;;8.80;47.06;102609.22;5067086;28;20386;-73
2023/05/12 00:05:53;;;;;;;3.92;1.10;;;;;;;8.75;47.07;102604.78;5066311;28;20063;-72
2023/05/12 00:08:20;;;;;;;1.55;1.40;;;;;;;8.71;47.39;102604.72;5063652;28;20045;-72
2023/05/12 00:10:48;;;;;;;2.50;1.17;;;;;;;8.68;47.51;102610.75;5066625;28;20072;-72
2023/05/12 00:13:15;;;;;;;3.17;1.55;;;;;;;8.63;47.24;102607.19;5064895;28;20048;-73
2023/05/12 00:15:42;;;;;;;3.95;1.25;;;;;;;8.59;47.51;102605.34;5066369;28;20097;-72
2023/05/12 00:18:09;;;;;;;1.40;1.00;;;;;;;8.54;47.65;102607.00;5067869;28;20090;-72
2023/05/12 00:20:36;;;;;;;2.45;1.17;;;;;;;8.51;47.57;102607.81;5066829;28;20059;-72
2023/05/12 00:23:03;;;;;;;5.15;1.00;;;;;;;8.46;47.57;102608.56;5063074;28;20489;-72
2023/05/12 00:25:30;;;;;;;3.50;1.65;;;;;;;8.41;48.08;102607.59;5067533;28;20040;-73
2023/05/12 00:27:58;;;;;;;1.98;1.27;;;;;;;8.37;48.05;102617.06;5061057;28;20061;-72
2023/05/12 00:30:25;;;;;;;7.75;1.02;;;;;;;8.30;47.85;102616.03;5067095;28;20465;-72
2023/05/12 00:32:52;;;;;;;3.05;1.60;;;;;;;8.26;47.98;102616.81;5064453;28;20052;-72
2023/05/12 00:35:18;;;;;;;3.92;1.08;;;;;;;8.26;48.21;102627.25;5069067;28;20045;-71
2023/05/12 00:37:46;;;;;;;4.20;1.42;;;;;;;8.21;48.07;102622.78;5063986;28;20065;-72
2023/05/12 00:40:13;;;;;;;2.80;1.42;;;;;;;8.18;48.20;102628.81;5060945;28;20047;-73
2023/05/12 00:42:40;;;;;;;5.10;1.23;;;;;;;8.14;48.16;102624.38;5064858;28;20052;-72
2023/05/12 00:45:09;;;;;;;6.55;1.35;;;;;;;8.10;48.45;102623.44;5064766;28;20110;-72
2023/05/12 00:47:36;;;;;;;1.30;1.00;;;;;;;8.06;48.18;102625.94;5065638;28;20044;-72
2023/05/12 00:50:05;;;;;;;2.92;1.42;;;;;;;8.02;48.50;102626.72;5066038;28;20055;-73
2023/05/12 00:52:32;;;;;;;2.22;1.00;;;;;;;7.98;48.59;102624.91;5060896;28;20051;-72
2023/05/12 00:55:00;;;;;;;5.30;1.35;;;;;;;7.95;48.98;102637.84;5062255;28;20420;-72
2023/05/12 00:57:27;;;;;;;4.82;1.10;;;;;;;7.91;48.86;102630.78;5066142;28;20040;-74
2023/05/12 00:59:54;;;;;;;5.22;1.88;;;;;;;7.87;48.91;102633.34;5061874;28;20045;-72
2023/05/12 01:02:23;;;;;;;4.30;1.13;;;;;;;7.82;48.93;102640.16;5063526;28;20040;-72
2023/05/12 01:04:50;;;;;;;2.95;1.17;;;;;;;7.79;48.98;102640.09;5067830;28;20048;-72
2023/05/12 01:07:21;;;;;;;1.50;1.13;;;;;;;7.76;49.27;102640.00;5062469;28;20497;-73
2023/05/12 01:09:48;;;;;;;4.93;1.73;;;;;;;7.71;49.12;102638.16;5066819;28;20045;-72
2023/05/12 01:12:15;;;;;;;2.83;1.15;;;;;;;7.70;49.19;102649.41;5063709;28;20048;-72
2023/05/12 01:14:42;;;;;;;1.63;1.17;;;;;;;7.65;49.34;102644.09;5065780;28;20064;-73
2023/05/12 01:17:13;;;;;;;3.60;1.63;;;;;;;7.61;49.62;102643.16;5058882;28;20045;-72
2023/05/12 01:19:48;;;;;;;4.80;1.48;;;;;;;7.61;49.23;102652.66;5066473;28;20098;-71
2023/05/12 01:22:16;;;;;;;1.42;1.10;;;;;;;7.57;49.32;102649.13;5062492;28;20075;-73
2023/05/12 01:24:51;;;;;;;2.08;0.93;;;;;;;7.54;49.31;102653.34;5066930;28;20042;-73
2023/05/12 01:27:21;;;;;;;2.70;0.90;;;;;;;7.49;49.64;102648.06;5066282;28;20049;-72
2023/05/12 01:29:48;;;;;;;4.40;1.33;;;;;;;7.49;49.66;102663.66;5060275;28;20072;-72
2023/05/12 01:32:16;;;;;;;3.67;1.38;;;;;;;7.47;49.71;102661.88;5056517;28;20805;-72
2023/05/12 01:34:43;;;;;;;2.92;1.15;;;;;;;7.42;50.15;102675.63;5059833;28;20048;-72
2023/05/12 01:37:11;;;;;;;4.28;1.60;;;;;;;7.40;49.81;102666.03;5067902;28;20060;-73
2023/05/12 01:39:38;;;;;;;3.72;1.48;;;;;;;7.37;50.24;102666.84;5056231;28;20448;-73
2023/05/12 01:42:06;;;;;;;3.30;1.17;;;;;;;7.35;50.19;102671.13;5059404;28;20049;-72
2023/05/12 01:44:35;;;;;;;2.35;1.52;;;;;;;7.32;50.45;102670.16;5060516;28;20520;-73
2023/05/12 01:47:01;;;;;;;1.85;1.10;;;;;;;7.29;50.17;102676.16;5060811;28;20568;-72
2023/05/12 01:49:28;;;;;;;1.80;1.30;;;;;;;7.24;50.48;102672.56;5058797;28;20052;-72
2023/05/12 01:51:55;;;;;;;1.52;1.10;;;;;;;7.23;50.53;102676.00;5061381;28;20040;-73
2023/05/12 01:54:22;;;;;;;4.18;1.90;;;;;;;7.20;50.86;102679.41;5063954;28;20574;-72
2023/05/12 01:56:49;;;;;;;2.85;1.90;;;;;;;7.17;50.72;102678.44;5058052;28;20037;-73
2023/05/12 01:59:16;;;;;;;3.75;1.60;;;;;;;7.15;50.77;102675.81;5054637;28;20501;-72
2023/05/12 02:01:44;;;;;;;1.67;1.40;;;;;;;7.13;50.84;102679.19;5050235;28;20059;-72
2023/05/12 02:04:11;;;;;;;3.38;1.05;;;;;;;7.08;50.51;102676.47;5053817;28;20041;-73
2023/05/12 02:06:38;;;;;;;1.83;1.40;;;;;;;7.08;51.33;102683.38;5060078;28;20046;-72
2023/05/12 02:09:05;;;;;;;2.72;1.30;;;;;;;7.05;50.97;102680.72;5058902;28;20048;-73
2023/05/12 02:11:32;;;;;;;3.92;1.20;;;;;;;7.02;50.95;102675.44;5060225;28;20048;-72
2023/05/12 02:13:59;;;;;;;2.65;1.35;;;;;;;6.99;51.03;102681.44;5059725;28;20049;-74
2023/05/12 02:16:25;;;;;;;2.70;1.00;;;;;;;6.97;51.22;102675.31;5064394;28;20052;-73
2023/05/12 02:18:54;;;;;;;1.75;1.65;;;;;;;6.95;51.33;102683.06;5063262;28;20045;-73
2023/05/12 02:21:21;;;;;;;8.70;1.45;;;;;;;6.92;51.40;102677.78;5061700;28;20040;-74
2023/05/12 02:23:48;;;;;;;2.30;1.40;;;;;;;6.91;51.46;102682.94;5052687;28;20523;-73
2023/05/12 02:26:14;;;;;;;2.47;1.50;;;;;;;6.88;51.42;102691.53;5058594;28;20131;-73
2023/05/12 02:28:41;;;;;;;2.72;1.77;;;;;;;6.86;51.36;102676.72;5055925;28;20403;-73
2023/05/12 02:31:08;;;;;;;2.40;1.30;;;;;;;6.84;51.53;102688.81;5059736;28;20584;-73
2023/05/12 02:33:35;;;;;;;3.88;1.35;;;;;;;6.81;51.59;102679.22;5062791;28;20052;-73
2023/05/12 02:36:04;;;;;;;5.53;1.48;;;;;;;6.79;51.86;102680.88;5054650;28;20484;-76
2023/05/12 02:38:31;;;;;;;3.67;1.48;;;;;;;6.78;51.83;102686.94;5061990;28;20045;-76
2023/05/12 02:40:58;;;;;;;6.80;2.20;;;;;;;6.75;51.82;102681.66;5053707;28;20044;-76
2023/05/12 02:43:25;;;;;;;4.35;1.58;;;;;;;6.73;51.91;102681.59;5057612;28;20358;-76
2023/05/12 02:45:52;;;;;;;4.00;1.67;;;;;;;6.71;51.97;102687.56;5064131;28;20055;-72
2023/05/12 02:48:19;;;;;;;4.18;1.52;;;;;;;6.69;52.18;102684.09;5060976;28;20044;-71
2023/05/12 02:50:46;;;;;;;2.25;1.58;;;;;;;6.67;52.25;102683.16;5059631;28;20044;-71
2023/05/12 02:53:14;;;;;;;1.70;1.52;;;;;;;6.64;52.23;102689.13;5058917;28;20053;-72
2023/05/12 02:55:41;;;;;;;2.22;1.70;;;;;;;6.63;52.38;102691.66;5058177;28;20143;-71
2023/05/12 02:58:08;;;;;;;2.00;1.80;;;;;;;6.62;52.45;102692.53;5060344;28;20048;-72
2023/05/12 03:00:35;;;;;;;2.78;1.52;;;;;;;6.61;52.34;102691.66;5070266;28;20492;-72
2023/05/12 03:03:02;;;;;;;2.08;1.60;;;;;;;6.59;52.71;102690.72;5064355;28;20040;-71
2023/05/12 03:05:29;;;;;;;4.40;1.60;;;;;;;6.58;52.65;102694.16;5057206;28;20054;-71
2023/05/12 03:07:56;;;;;;;2.17;1.58;;;;;;;6.57;52.95;102694.09;5069516;28;20135;-72
2023/05/12 03:10:24;;;;;;;2.72;1.67;;;;;;;6.56;52.98;102698.41;5062140;28;20424;-72
2023/05/12 03:12:51;;;;;;;6.68;1.42;;;;;;;6.55;52.88;102691.47;5069611;28;20063;-72
2023/05/12 03:15:18;;;;;;;1.40;1.30;;;;;;;6.52;53.05;102691.38;5064744;28;20394;-72
2023/05/12 03:17:45;;;;;;;3.28;1.88;;;;;;;6.54;53.00;102697.47;5066309;28;20052;-72
2023/05/12 03:20:12;;;;;;;1.88;1.42;;;;;;;6.53;53.08;102700.94;5068741;28;20045;-72
2023/05/12 03:22:39;;;;;;;2.58;1.63;;;;;;;6.52;53.23;102697.44;5068220;28;20053;-71
2023/05/12 03:25:09;;;;;;;2.45;1.15;;;;;;;6.53;53.41;102698.31;5065293;28;20048;-72
2023/05/12 03:27:37;;;;;;;3.53;2.10;;;;;;;6.52;53.50;102700.06;5062772;28;20063;-73
2023/05/12 03:30:05;;;;;;;3.05;1.67;;;;;;;6.53;53.58;102699.19;5069299;28;20462;-72
2023/05/12 03:32:31;;;;;;;3.58;1.52;;;;;;;6.53;53.70;102699.19;5066495;28;20080;-72
2023/05/12 03:34:58;;;;;;;1.65;1.35;;;;;;;6.54;53.80;102694.88;5065055;28;20055;-71
2023/05/12 03:37:25;;;;;;;4.57;1.33;;;;;;;6.55;53.84;102700.97;5065399;28;20049;-71
2023/05/12 03:39:54;;;;;;;3.20;1.80;;;;;;;6.56;54.09;102695.81;5065412;28;20072;-71
2023/05/12 03:42:22;;;;;;;4.55;2.25;;;;;;;6.57;54.21;102700.16;5065529;28;20052;-71
2023/05/12 03:44:51;;;;;;;3.20;1.67;;;;;;;6.56;54.15;102692.34;5069874;28;20048;-72
2023/05/12 03:47:18;;;;;;;3.72;1.83;;;;;;;6.63;54.22;102704.66;5064372;28;20878;-73
2023/05/12 03:49:45;;;;;;;2.00;1.40;;;;;;;6.64;54.57;102699.53;5062895;28;20421;-72
2023/05/12 03:52:12;;;;;;;3.83;1.52;;;;;;;6.67;54.76;102698.72;5067790;28;20053;-72
2023/05/12 03:54:39;;;;;;;2.17;1.90;;;;;;;6.69;55.09;102705.72;5068268;28;20048;-71
2023/05/12 03:57:07;;;;;;;2.65;1.73;;;;;;;6.73;55.37;102706.69;5063983;28;20409;-72
2023/05/12 03:59:33;;;;;;;2.13;1.50;;;;;;;6.77;55.67;102698.13;5065648;28;20118;-71
2023/05/12 04:02:02;;;;;;;3.42;1.60;;;;;;;6.80;56.03;102698.22;5065643;28;20048;-72
2023/05/12 04:04:28;;;;;;;6.55;1.88;;;;;;;6.85;56.10;102704.44;5069466;28;20049;-72
2023/05/12 04:06:55;;;;;;;8.52;2.17;;;;;;;6.90;56.27;102705.44;5058828;28;20045;-72
2023/05/12 04:09:22;;;;;;;3.45;1.85;;;;;;;6.97;56.57;102706.47;5063749;28;20060;-71
2023/05/12 04:11:50;;;;;;;4.38;1.77;;;;;;;7.04;56.33;102703.22;5066244;28;20140;-72
2023/05/12 04:14:17;;;;;;;2.55;1.80;;;;;;;7.12;56.57;102706.03;5069890;28;20401;-72
2023/05/12 04:16:43;;;;;;;13.88;2.97;;;;;;;7.19;56.89;102706.22;5066547;28;20056;-72
2023/05/12 04:19:12;;;;;;;3.25;2.22;;;;;;;7.29;57.11;102709.97;5068882;28;20059;-72
2023/05/12 04:21:38;;;;;;;6.13;2.45;;;;;;;7.38;57.32;102705.00;5065397;28;20790;-72
2023/05/12 04:24:06;;;;;;;3.85;2.03;;;;;;;7.51;57.37;102713.09;5067554;28;20041;-71
2023/05/12 04:26:32;;;;;;;3.33;1.90;;;;;;;7.61;57.41;102709.91;5065059;28;20055;-72
2023/05/12 04:28:59;;;;;;;2.67;2.13;;;;;;;7.73;57.33;102701.50;5069688;28;20052;-73
2023/05/12 04:31:26;;;;;;;4.60;1.65;;;;;;;7.87;57.27;102708.78;5057495;28;20412;-71
2023/05/12 04:33:54;;;;;;;2.78;1.73;;;;;;;8.00;57.30;102706.50;5069459;28;20063;-70
2023/05/12 04:36:23;;;;;;;2.40;1.77;;;;;;;8.11;57.60;102695.47;5064270;28;20067;-71
2023/05/12 04:38:50;;;;;;;1.60;1.50;;;;;;;8.30;57.39;102708.88;5063606;28;20049;-73
2023/05/12 04:41:17;;;;;;;2.92;1.58;;;;;;;8.46;57.64;102703.22;5067323;28;20052;-73
2023/05/12 04:43:44;;;;;;;5.53;2.17;;;;;;;8.63;57.76;102706.16;5068211;28;20059;-73
2023/05/12 04:46:11;;;;;;;3.83;2.80;;;;;;;8.81;57.96;102700.44;5060338;28;20125;-74
2023/05/12 04:48:40;;;;;;;4.55;2.25;;;;;;;8.98;58.31;102695.56;5065573;28;20055;-74
2023/05/12 04:51:07;;;;;;;9.25;1.80;;;;;;;9.19;58.25;102698.56;5063297;28;20055;-74
2023/05/12 04:53:36;;;;;;;6.63;2.95;;;;;;;9.41;58.54;102698.94;5066198;28;20048;-74
2023/05/12 04:56:03;;;;;;;4.32;2.00;;;;;;;9.61;58.47;102697.53;5062989;28;20150;-74
2023/05/12 04:58:29;;;;;;;7.05;2.28;;;;;;;9.78;58.27;102691.72;5069307;28;20064;-74
2023/05/12 05:00:56;;;;;;;5.28;1.83;;;;;;;10.00;58.26;102695.53;5063770;28;20726;-74
2023/05/12 05:03:24;;;;;;;2.90;2.05;;;;;;;10.18;58.52;102700.13;5067498;28;20052;-74
2023/05/12 05:05:51;;;;;;;2.47;1.60;;;;;;;10.35;57.93;102694.28;5060814;28;20037;-74
2023/05/12 05:08:18;;;;;;;9.30;2.10;;;;;;;10.52;57.84;102694.53;5065852;28;20390;-73
2023/05/12 05:10:46;;;;;;;2.63;1.70;;;;;;;10.70;57.70;102690.38;5061340;28;20046;-74
2023/05/12 05:13:13;;;;;;;3.97;1.50;;;;;;;10.86;57.42;102689.69;5064853;28;20045;-74
2023/05/12 05:15:40;;;;;;;3.47;1.23;;;;;;;11.07;57.28;102696.91;5063316;28;20052;-74
2023/05/12 05:18:08;;;;;;;2.55;1.77;;;;;;;11.23;57.12;102700.53;5063601;28;20778;-74
2023/05/12 05:20:34;;;;;;;2.53;1.75;;;;;;;11.39;56.91;102697.19;5060421;28;20049;-74
2023/05/12 05:23:02;;;;;;;3.08;1.80;;;;;;;11.52;56.34;102695.56;5062984;28;20044;-73
2023/05/12 05:25:28;;;;;;;1.90;1.52;;;;;;;11.68;55.79;102701.81;5065219;28;20051;-72
2023/05/12 05:27:57;;;;;;;3.05;1.48;;;;;;;11.79;55.44;102692.28;5064471;28;20504;-72
2023/05/12 05:30:24;;;;;;;1.92;1.55;;;;;;;11.91;55.46;102697.63;5061697;28;20049;-72
2023/05/12 05:32:50;;;;;;;4.88;1.42;;;;;;;12.03;54.54;102695.97;5064918;28;20414;-72
2023/05/12 05:35:17;;;;;;;3.25;1.40;;;;;;;12.12;54.14;102698.63;5063751;28;20626;-73
2023/05/12 05:37:44;;;;;;;1.35;1.17;;;;;;;12.21;53.63;102696.09;5057471;28;20556;-74
2023/05/12 05:40:12;;;;;;;4.70;1.30;;;;;;;12.29;53.15;102686.50;5063629;28;20044;-73
2023/05/12 05:42:38;;;;;;;3.70;1.52;;;;;;;12.38;52.55;102686.56;5058804;28;20523;-74
2023/05/12 05:45:08;;;;;;;3.35;1.10;;;;;;;12.47;52.65;102690.09;5063082;28;20044;-73
2023/05/12 05:47:36;;;;;;;4.47;1.13;;;;;;;12.55;52.23;102690.97;5065292;28;21111;-74
2023/05/12 05:50:03;;;;;;;3.47;1.40;;;;;;;12.50;51.50;102669.13;5061904;28;20501;-74
2023/05/12 05:52:30;;;;;;;3.88;1.20;;;;;;;12.66;50.99;102691.91;5061921;28;20051;-73
2023/05/12 05:54:57;;;;;;;1.98;1.30;;;;;;;12.72;50.63;102689.31;5065518;28;20892;-73
2023/05/12 05:57:26;;;;;;;2.75;1.00;;;;;;;12.76;50.54;102696.31;5063558;28;20108;-73
2023/05/12 05:59:53;;;;;;;3.40;1.10;;;;;;;12.81;50.26;102686.72;5064250;28;20056;-73
2023/05/12 06:02:22;;;;;;;7.45;1.20;;;;;;;12.86;49.75;102678.84;5056123;28;20421;-73
2023/05/12 06:04:51;;;;;;;3.78;0.80;;;;;;;12.92;49.38;102680.59;5066586;28;20159;-73
2023/05/12 06:07:18;;;;;;;2.92;0.80;;;;;;;12.97;49.08;102678.88;5065874;28;20052;-71
2023/05/12 06:09:45;;;;;;;3.55;0.85;;;;;;;13.03;48.83;102686.75;5061605;28;20812;-72
2023/05/12 06:12:11;;;;;;;6.70;0.90;;;;;;;13.07;48.04;102683.28;5064453;28;20040;-73
2023/05/12 06:14:38;;;;;;;2.03;0.77;;;;;;;13.12;48.10;102692.03;5058320;28;20048;-73
2023/05/12 06:17:05;;;;;;;1.13;0.77;;;;;;;13.15;48.16;102686.78;5064754;28;20044;-73
2023/05/12 06:19:34;;;;;;;4.93;0.93;;;;;;;13.19;47.69;102687.66;5056154;28;20053;-72
2023/05/12 06:22:00;;;;;;;4.60;0.90;;;;;;;13.23;47.71;102684.16;5059274;28;20476;-74
2023/05/12 06:24:27;;;;;;;5.25;1.00;;;;;;;13.27;47.47;102684.22;5055400;28;20974;-73
2023/05/12 06:26:54;;;;;;;1.63;1.00;;;;;;;13.32;47.22;102684.22;5040726;28;20056;-73
2023/05/12 06:29:21;;;;;;;4.00;0.77;;;;;;;13.37;47.11;102686.84;5062091;28;20071;-73
2023/05/12 06:31:48;;;;;;;1.55;0.80;;;;;;;13.44;46.99;102693.84;5059479;28;20045;-73
2023/05/12 06:34:15;;;;;;;5.53;0.80;;;;;;;13.50;46.54;102680.72;5063772;28;20052;-73
2023/05/12 06:36:43;;;;;;;2.97;1.02;;;;;;;13.55;45.86;102670.19;5062021;28;20040;-73
2023/05/12 06:39:10;;;;;;;6.15;0.80;;;;;;;13.64;44.58;102683.34;5062492;28;20040;-73
2023/05/12 06:41:36;;;;;;;5.97;0.98;;;;;;;13.75;44.01;102691.22;5063120;28;20063;-73
2023/05/12 06:44:05;;;;;;;5.47;0.75;;;;;;;13.83;43.56;102685.06;5062842;28;20488;-74
2023/05/12 06:46:32;;;;;;;2.15;1.38;;;;;;;13.93;42.79;102685.94;5063759;28;20205;-72
2023/05/12 06:48:59;;;;;;;5.63;0.70;;;;;;;14.00;42.26;102682.38;5060197;28;20048;-72
2023/05/12 06:51:26;;;;;;;2.42;0.70;;;;;;;14.10;41.72;102684.13;5064105;28;20105;-71
2023/05/12 06:53:54;;;;;;;3.55;0.70;;;;;;;14.22;41.46;102684.97;5061252;28;20052;-71
2023/05/12 06:56:22;;;;;;;6.35;0.60;;;;;;;14.33;40.94;102693.72;5065815;28;20397;-71
2023/05/12 06:58:49;;;;;;;2.55;1.00;;;;;;;14.42;40.86;102688.41;5061893;28;20472;-71
2023/05/12 07:01:16;;;;;;;4.10;0.80;;;;;;;14.50;39.99;102684.00;5064586;28;20495;-71
2023/05/12 07:03:43;;;;;;;0.80;0.68;;;;;;;14.66;39.46;102691.84;5062588;28;20060;-70
2023/05/12 07:06:10;;;;;;;1.98;0.70;;;;;;;14.78;39.33;102683.91;5064870;28;20456;-72
2023/05/12 07:08:37;;;;;;;2.17;1.00;;;;;;;14.94;39.15;102685.56;5061196;28;20045;-72
2023/05/12 07:11:05;;;;;;;2.10;0.93;;;;;;;15.11;38.42;102687.19;5066010;28;20052;-75
2023/05/12 07:13:32;;;;;;;3.88;1.55;;;;;;;15.23;38.18;102689.75;5060478;28;20041;-72
2023/05/12 07:15:59;;;;;;;3.60;0.52;;;;;;;15.36;37.97;102699.28;5062499;28;20053;-73
2023/05/12 07:18:26;;;;;;;4.15;1.08;;;;;;;15.47;37.46;102688.69;5065450;28;20098;-72
2023/05/12 07:20:53;;;;;;;7.55;0.60;;;;;;;15.62;37.03;102692.94;5059846;28;20055;-74
2023/05/12 07:23:20;;;;;;;5.57;0.82;;;;;;;15.74;36.69;102687.59;5060966;28;20089;-73
2023/05/12 07:25:47;;;;;;;0.80;0.70;;;;;;;15.90;37.27;102696.22;5059409;28;20040;-75
2023/05/12 07:28:15;;;;;;;0.85;0.60;;;;;;;16.04;37.19;102690.81;5063801;28;20048;-72
2023/05/12 07:30:42;;;;;;;1.48;0.68;;;;;;;16.19;36.91;102690.63;5059892;28;20041;-72
2023/05/12 07:33:09;;;;;;;3.95;0.60;;;;;;;16.33;36.34;102672.88;5064409;28;20045;-71
2023/05/12 07:35:36;;;;;;;1.63;0.60;;;;;;;16.46;36.57;102680.66;5061545;28;20051;-70
2023/05/12 07:38:03;;;;;;;4.03;0.50;;;;;;;16.59;36.00;102679.59;5063316;28;20044;-70
2023/05/12 07:40:30;;;;;;;1.67;0.77;;;;;;;16.72;35.42;102681.19;5060299;28;20055;-70
2023/05/12 07:42:57;;;;;;;4.80;0.93;;;;;;;16.86;35.04;102673.97;5063087;28;20049;-70
2023/05/12 07:45:25;;;;;;;1.73;0.85;;;;;;;17.02;34.54;102673.78;5065591;28;20567;-70
2023/05/12 07:47:52;;;;;;;6.07;1.10;;;;;;;17.18;34.00;102672.63;5066180;28;20489;-70
2023/05/12 07:50:20;;;;;;;2.17;0.70;;;;;;;17.33;33.39;102673.25;5068197;28;20054;-69
2023/05/12 07:52:48;;;;;;;3.28;0.85;;;;;;;17.45;33.93;102671.31;5065360;28;20079;-69
2023/05/12 07:55:15;;;;;;;2.45;0.60;;;;;;;17.59;33.72;102681.66;5067826;28;20799;-69
2023/05/12 07:57:43;;;;;;;4.68;0.68;;;;;;;17.74;33.72;102675.19;5066440;28;20845;-69
2023/05/12 08:00:11;;;;;;;3.60;0.73;;;;;;;17.89;33.41;102682.00;5064978;28;20052;-70
2023/05/12 08:02:40;;;;;;;3.10;0.88;;;;;;;18.02;33.13;102680.88;5064630;28;20055;-69
2023/05/12 08:05:07;;;;;;;1.48;0.70;;;;;;;18.15;33.53;102681.50;5064755;28;20059;-70
2023/05/12 08:07:34;;;;;;;6.25;0.70;;;;;;;18.28;32.91;102682.16;5066037;28;20433;-69
2023/05/12 08:10:01;;;;;;;0.80;0.60;;;;;;;18.40;32.78;102688.03;5065353;28;20049;-69
2023/05/12 08:12:28;;;;;;;6.20;1.38;;;;;;;18.54;32.36;102695.69;5066781;28;20102;-70
2023/05/12 08:14:55;;;;;;;6.70;0.80;;;;;;;18.66;32.35;102682.19;5062512;28;20045;-69
2023/05/12 08:17:22;;;;;;;1.63;0.77;;;;;;;18.79;32.45;102674.03;5062598;28;20151;-70
2023/05/12 08:19:51;;;;;;;1.27;0.50;;;;;;;18.91;31.98;102679.03;5065988;28;20040;-69
2023/05/12 08:22:18;;;;;;;2.22;0.70;;;;;;;19.02;31.71;102682.31;5054986;28;20044;-69
2023/05/12 08:24:46;;;;;;;1.15;0.50;;;;;;;19.13;30.85;102682.06;5058348;28;20051;-69
2023/05/12 08:27:13;;;;;;;2.78;0.75;;;;;;;19.22;30.89;102686.25;5064692;28;20136;-69
2023/05/12 08:29:40;;;;;;;1.73;0.68;;;;;;;19.28;30.92;102678.16;5057715;28;20047;-69
2023/05/12 08:32:07;;;;;;;2.85;0.80;;;;;;;19.37;31.37;102680.56;5057942;28;20128;-69
2023/05/12 08:34:34;;;;;;;1.55;0.90;;;;;;;19.45;30.58;102683.91;5059605;28;20055;-69
2023/05/12 08:37:03;;;;;;;3.13;0.70;;;;;;;19.54;30.85;102673.06;5057234;28;20168;-69
2023/05/12 08:39:30;;;;;;;5.50;0.50;;;;;;;19.61;30.88;102676.44;5057381;28;20052;-69
2023/05/12 08:42:09;;;;;;;2.60;0.68;;;;;;;19.67;29.92;102675.44;5059541;28;20567;-70
2023/05/12 08:44:37;;;;;;;2.78;1.50;;;;;;;19.73;29.68;102669.97;5061203;28;20075;-69
2023/05/12 08:47:05;;;;;;;2.88;0.70;;;;;;;19.78;29.67;102668.06;5062053;28;20051;-68
2023/05/12 08:49:35;;;;;;;2.10;0.57;;;;;;;19.84;29.43;102673.22;5059462;28;20555;-69
2023/05/12 08:52:04;;;;;;;3.22;0.60;;;;;;;19.90;29.78;102661.56;5062389;28;20568;-69
2023/05/12 08:54:33;;;;;;;1.80;0.60;;;;;;;19.95;29.56;102662.28;5053383;28;20554;-69
2023/05/12 08:57:01;;;;;;;7.25;0.75;;;;;;;20.01;29.43;102656.81;5061027;28;20132;-69
2023/05/12 08:59:28;;;;;;;4.97;0.50;;;;;;;20.09;28.87;102665.41;5059687;28;20127;-69
2023/05/12 09:01:56;;;;;;;4.38;0.88;;;;;;;20.15;28.86;102667.03;5059345;28;20053;-69
2023/05/12 09:04:23;;;;;;;2.70;0.60;;;;;;;20.17;29.28;102660.75;5059510;28;20053;-69
2023/05/12 09:06:51;;;;;;;6.63;0.80;;;;;;;20.26;27.95;102654.31;5059646;28;20528;-69
2023/05/12 09:09:20;;;;;;;0.85;0.50;;;;;;;20.31;28.44;102651.53;5055603;28;20386;-69
2023/05/12 09:11:49;;;;;;;5.47;0.70;;;;;;;20.34;28.24;102657.63;5057619;28;20044;-69
2023/05/12 09:14:19;;;;;;;4.10;0.68;;;;;;;20.39;28.38;102661.00;5060127;28;20044;-69
2023/05/12 09:16:49;;;;;;;1.75;0.70;;;;;;;20.44;28.44;102656.44;5060487;28;20051;-69
2023/05/12 09:19:19;;;;;;;5.47;1.15;;;;;;;20.52;28.06;102655.31;5058756;28;20047;-69
2023/05/12 09:21:46;;;;;;;5.45;0.70;;;;;;;20.56;28.24;102651.72;5057318;28;20758;-67
2023/05/12 09:24:13;;;;;;;1.10;0.80;;;;;;;20.60;27.34;102651.56;5056281;28;20053;-70
2023/05/12 09:26:50;;;;;;;6.22;0.70;;;;;;;20.64;27.35;102645.25;5055177;28;21809;-70
2023/05/12 09:29:17;;;;;;;1.92;0.70;;;;;;;20.68;27.06;102648.66;5058952;28;20051;-70
2023/05/12 09:31:50;;;;;;;2.15;1.10;;;;;;;20.73;26.72;102649.41;5055463;28;20063;-70
2023/05/12 09:34:19;;;;;;;2.17;0.60;;;;;;;20.75;26.41;102647.56;5059939;28;20466;-70
2023/05/12 09:36:55;;;;;;;3.22;0.65;;;;;;;20.78;27.02;102639.50;5056180;28;20052;-70
2023/05/12 09:39:22;;;;;;;1.13;0.60;;;;;;;20.83;27.26;102637.59;5060700;28;20559;-70
2023/05/12 09:41:51;;;;;;;3.78;0.65;;;;;;;20.86;26.25;102639.25;5058951;28;20066;-70
2023/05/12 09:44:18;;;;;;;2.13;0.50;;;;;;;20.93;26.72;102639.94;5058105;28;20049;-70
2023/05/12 09:46:45;;;;;;;3.63;0.80;;;;;;;20.95;26.65;102640.78;5056113;28;20041;-70
2023/05/12 09:49:13;;;;;;;3.90;0.63;;;;;;;20.98;27.19;102640.66;5057486;28;20574;-69
2023/05/12 09:51:41;;;;;;;2.03;0.85;;;;;;;21.03;26.43;102630.72;5059602;28;20661;-70
2023/05/12 09:54:08;;;;;;;1.20;0.68;;;;;;;21.06;26.78;102642.16;5058394;28;20052;-70
2023/05/12 09:56:37;;;;;;;4.10;0.70;;;;;;;21.09;26.42;102634.06;5060081;28;20048;-70
2023/05/12 09:59:06;;;;;;;1.20;0.52;;;;;;;21.13;26.27;102645.47;5057199;28;20055;-69
2023/05/12 10:01:33;;;;;;;7.05;0.90;;;;;;;21.14;25.69;102627.72;5059640;28;20103;-68
2023/05/12 10:04:01;;;;;;;1.52;0.60;;;;;;;21.16;26.27;102632.06;5059645;28;20056;-70
2023/05/12 10:06:30;;;;;;;1.88;0.60;;;;;;;21.18;26.22;102635.56;5059723;28;20056;-70
2023/05/12 10:09:04;;;;;;;3.40;0.60;;;;;;;21.20;25.67;102628.38;5060446;28;20044;-70
2023/05/12 10:11:32;;;;;;;3.38;0.80;;;;;;;21.19;25.36;102626.66;5057408;28;20051;-70
2023/05/12 10:14:00;;;;;;;2.95;0.70;;;;;;;21.18;25.67;102629.38;5056036;28;20116;-70
2023/05/12 10:16:29;;;;;;;2.58;0.60;;;;;;;21.23;25.18;102628.31;5058468;28;20053;-70
2023/05/12 10:18:56;;;;;;;5.22;1.20;;;;;;;21.20;25.92;102628.38;5054414;28;20070;-69
2023/05/12 10:21:25;;;;;;;2.10;0.60;;;;;;;21.23;25.37;102625.66;5058098;28;20045;-70
2023/05/12 10:23:54;;;;;;;2.92;0.60;;;;;;;21.23;25.26;102625.66;5054580;28;20044;-70
2023/05/12 10:26:22;;;;;;;2.78;0.70;;;;;;;21.24;25.12;102623.84;5056167;28;20048;-70
2023/05/12 10:28:49;;;;;;;1.80;0.60;;;;;;;21.26;25.08;102630.84;5059643;28;20048;-70
2023/05/12 10:31:17;;;;;;;1.10;0.70;;;;;;;21.26;24.60;102630.84;5056356;28;20489;-69
2023/05/12 10:33:56;;;;;;;2.42;0.75;;;;;;;21.24;24.95;102614.09;5058630;28;20049;-70
2023/05/12 10:36:23;;;;;;;4.55;0.60;;;;;;;21.27;25.16;102621.94;5058489;28;20053;-70
2023/05/12 10:38:50;;;;;;;3.28;1.02;;;;;;;21.27;25.31;102618.44;5060766;28;20048;-70
2023/05/12 10:41:28;;;;;;;4.10;1.40;;;;;;;21.25;25.53;102617.59;5058026;28;20044;-70
2023/05/12 10:43:55;;;;;;;1.80;0.60;;;;;;;21.27;25.40;102621.94;5056890;28;20048;-70
2023/05/12 10:46:23;;;;;;;7.10;0.73;;;;;;;21.26;25.53;102622.88;5054497;28;20064;-70
2023/05/12 10:48:54;;;;;;;5.38;0.60;;;;;;;21.26;25.51;102622.88;5061553;28;20184;-70
2023/05/12 10:51:23;;;;;;;1.40;0.60;;;;;;;21.26;25.44;102617.56;5060091;28;20055;-70
2023/05/12 10:53:56;;;;;;;1.67;1.02;;;;;;;21.27;25.62;102621.94;5057114;28;20053;-69
2023/05/12 10:56:25;;;;;;;0.85;0.50;;;;;;;21.16;25.70;102597.53;5060949;28;20056;-70
2023/05/12 10:59:12;;;;;;;1.63;0.50;;;;;;;21.31;26.04;102631.53;5055466;28;20815;-69
2023/05/12 11:01:39;;;;;;;1.88;0.43;;;;;;;21.29;25.69;102621.91;5056175;28;20048;-70
2023/05/12 11:04:13;;;;;;;3.58;0.60;;;;;;;21.29;26.09;102617.47;5058474;28;20509;-70
2023/05/12 11:06:40;;;;;;;1.42;0.57;;;;;;;21.29;25.93;102613.94;5057807;28;20063;-70
2023/05/12 11:09:07;;;;;;;7.75;0.82;;;;;;;21.30;25.73;102616.53;5056132;28;20043;-70
2023/05/12 11:11:35;;;;;;;2.10;0.55;;;;;;;21.30;25.32;102613.00;5057979;28;20040;-70
2023/05/12 11:14:02;;;;;;;2.63;0.50;;;;;;;21.29;25.73;102617.47;5053895;28;20040;-70
2023/05/12 11:16:32;;;;;;;2.97;0.60;;;;;;;21.27;25.52;102621.94;5058429;28;20044;-70
2023/05/12 11:19:03;;;;;;;3.65;0.90;;;;;;;21.28;25.88;102625.47;5064775;28;20051;-70
2023/05/12 11:21:33;;;;;;;2.58;0.57;;;;;;;21.25;26.26;102617.59;5060885;28;20094;-70
2023/05/12 11:24:01;;;;;;;3.70;0.70;;;;;;;21.25;25.74;102621.13;5061169;28;20044;-70
2023/05/12 11:26:28;;;;;;;0.70;0.57;;;;;;;21.27;25.88;102613.97;5058888;28;20164;-70
2023/05/12 11:28:57;;;;;;;5.32;0.65;;;;;;;21.25;25.91;102620.25;5059467;28;20061;-69
2023/05/12 11:31:24;;;;;;;2.85;1.08;;;;;;;21.26;25.34;102625.53;5059472;28;20063;-69